createdAt,value
2024-01-26T06:01:24.299Z,576.00
2024-01-26T06:01:59.709Z,575.00
2024-01-26T06:02:59.729Z,575.00
2024-01-26T06:03:59.780Z,576.00
2024-01-26T06:04:59.711Z,578.00
2024-01-26T06:05:59.784Z,577.00
2024-01-26T06:06:59.751Z,576.00
2024-01-26T06:07:59.789Z,575.00
2024-01-26T06:08:59.839Z,575.00
2024-01-26T06:09:59.701Z,576.00
2024-01-26T06:10:59.703Z,576.00
2024-01-26T06:11:59.696Z,574.00
2024-01-26T06:12:59.743Z,571.00
2024-01-26T06:13:59.710Z,571.00
2024-01-26T06:14:59.731Z,568.00
2024-01-26T06:15:59.729Z,566.00
2024-01-26T06:16:59.773Z,569.00
2024-01-26T06:17:59.965Z,571.00
2024-01-26T06:19:01.785Z,572.00
2024-01-26T06:19:59.714Z,573.00
2024-01-26T06:20:59.777Z,574.00
2024-01-26T06:21:59.783Z,578.00
2024-01-26T06:22:59.733Z,580.00
2024-01-26T06:23:59.788Z,580.00
2024-01-26T06:24:59.824Z,582.00
2024-01-26T06:25:59.748Z,582.00
2024-01-26T06:26:59.773Z,583.00
2024-01-26T06:27:59.743Z,590.00
2024-01-26T06:28:59.728Z,593.00
2024-01-26T06:29:59.798Z,596.00
2024-01-26T06:30:59.740Z,598.00
2024-01-26T06:31:59.730Z,601.00
2024-01-26T06:32:59.878Z,601.00
2024-01-26T06:33:59.848Z,603.00
2024-01-26T06:34:59.817Z,605.00
2024-01-26T06:35:59.812Z,606.00
2024-01-26T06:36:59.756Z,611.00
2024-01-26T06:37:59.723Z,612.00
2024-01-26T06:38:59.781Z,611.00
2024-01-26T06:39:59.706Z,611.00
2024-01-26T06:40:59.762Z,612.00
2024-01-26T06:41:59.791Z,614.00
2024-01-26T06:42:59.736Z,612.00
2024-01-26T06:43:59.761Z,610.00
2024-01-26T06:44:59.784Z,610.00
2024-01-26T06:45:59.865Z,611.00
2024-01-26T06:46:59.847Z,613.00
2024-01-26T06:47:59.820Z,618.00
2024-01-26T06:49:01.132Z,619.00
2024-01-26T06:49:59.834Z,626.00
2024-01-26T06:50:59.924Z,629.00
2024-01-26T06:51:59.957Z,627.00
2024-01-26T06:52:59.972Z,625.00
2024-01-26T06:54:00.128Z,629.00
2024-01-26T06:55:00.289Z,637.00
2024-01-26T06:56:00.240Z,642.00
2024-01-26T06:57:00.323Z,646.00
2024-01-26T06:58:00.345Z,651.00
2024-01-26T06:59:00.361Z,664.00
2024-01-26T07:00:01.218Z,680.00
2024-01-26T07:01:00.591Z,689.00
2024-01-26T07:02:00.506Z,691.00
2024-01-26T07:03:00.634Z,697.00
2024-01-26T07:04:00.792Z,707.00
2024-01-26T07:05:00.678Z,713.00
2024-01-26T07:06:00.732Z,723.00
2024-01-26T07:07:00.809Z,729.00
2024-01-26T07:08:00.733Z,735.00
2024-01-26T07:09:00.976Z,739.00
2024-01-26T07:10:00.885Z,742.00
2024-01-26T07:11:00.884Z,749.00
2024-01-26T07:12:01.400Z,757.00
2024-01-26T07:13:00.817Z,764.00
2024-01-26T07:14:00.826Z,772.00
2024-01-26T07:15:00.989Z,779.00
2024-01-26T07:16:00.848Z,782.00
2024-01-26T07:17:00.868Z,782.00
2024-01-26T07:18:00.955Z,784.00
2024-01-26T07:19:00.987Z,785.00
2024-01-26T07:20:01.095Z,791.00
2024-01-26T07:21:01.019Z,802.00
2024-01-26T07:22:00.925Z,831.00
2024-01-26T07:23:01.042Z,826.00
2024-01-26T07:24:01.082Z,827.00
2024-01-26T07:25:01.108Z,825.00
2024-01-26T07:26:01.140Z,825.00
2024-01-26T07:27:01.145Z,830.00
2024-01-26T07:28:01.069Z,834.00
2024-01-26T07:29:01.092Z,840.00
2024-01-26T07:30:01.172Z,852.00
2024-01-26T07:31:01.078Z,852.00
2024-01-26T07:32:01.204Z,852.00
2024-01-26T07:33:01.254Z,787.00
2024-01-26T07:34:01.309Z,775.00
2024-01-26T07:35:01.217Z,789.00
2024-01-26T07:36:01.256Z,795.00
2024-01-26T07:37:01.129Z,802.00
2024-01-26T07:38:01.135Z,806.00
2024-01-26T07:39:01.788Z,808.00
2024-01-26T07:40:01.670Z,811.00
2024-01-26T07:41:01.151Z,819.00
2024-01-26T07:42:01.248Z,827.00
2024-01-26T07:43:01.201Z,835.00
2024-01-26T07:44:01.150Z,841.00
2024-01-26T07:45:01.253Z,850.00
2024-01-26T07:46:01.093Z,865.00
2024-01-26T07:47:01.142Z,862.00
2024-01-26T07:48:01.298Z,859.00
2024-01-26T07:49:01.243Z,865.00
2024-01-26T07:50:01.313Z,871.00
2024-01-26T07:51:01.176Z,877.00
2024-01-26T07:52:01.114Z,882.00
2024-01-26T07:53:01.118Z,887.00
2024-01-26T07:54:01.166Z,892.00
2024-01-26T07:55:01.150Z,893.00
2024-01-26T07:56:02.411Z,896.00
2024-01-26T07:57:01.220Z,896.00
2024-01-26T07:58:01.192Z,897.00
2024-01-26T07:59:01.234Z,901.00
2024-01-26T08:00:01.318Z,896.00
2024-01-26T08:01:01.280Z,890.00
2024-01-26T08:02:01.265Z,886.00
2024-01-26T08:03:01.275Z,887.00
2024-01-26T08:04:01.399Z,886.00
2024-01-26T08:05:01.270Z,886.00
2024-01-26T08:06:01.465Z,879.00
2024-01-26T08:07:02.226Z,872.00
2024-01-26T08:08:01.389Z,868.00
2024-01-26T08:09:01.351Z,856.00
2024-01-26T08:10:01.441Z,840.00
2024-01-26T08:11:01.386Z,813.00
2024-01-26T08:12:01.399Z,823.00
2024-01-26T08:13:01.502Z,850.00
2024-01-26T08:14:01.411Z,851.00
2024-01-26T08:15:01.482Z,827.00
2024-01-26T08:16:01.391Z,816.00
2024-01-26T08:17:01.446Z,808.00
2024-01-26T08:18:01.520Z,803.00
2024-01-26T08:19:01.562Z,807.00
2024-01-26T08:20:01.490Z,817.00
2024-01-26T08:21:01.534Z,829.00
2024-01-26T08:22:01.506Z,847.00
2024-01-26T08:23:01.475Z,847.00
2024-01-26T08:24:01.499Z,766.00
2024-01-26T08:25:01.538Z,657.00
2024-01-26T08:26:01.757Z,635.00
2024-01-26T08:27:01.716Z,638.00
2024-01-26T08:28:01.810Z,634.00
2024-01-26T08:29:01.796Z,630.00
2024-01-26T08:30:01.901Z,629.00
2024-01-26T08:31:01.767Z,630.00
2024-01-26T08:32:01.865Z,675.00
2024-01-26T08:33:01.971Z,671.00
2024-01-26T08:34:02.183Z,675.00
2024-01-26T08:35:02.449Z,679.00
2024-01-26T08:36:02.117Z,678.00
2024-01-26T08:37:02.217Z,678.00
2024-01-26T08:38:02.147Z,680.00
2024-01-26T08:39:02.218Z,689.00
2024-01-26T08:40:02.130Z,709.00
2024-01-26T08:41:02.213Z,722.00
2024-01-26T08:42:02.801Z,727.00
2024-01-26T08:43:02.234Z,734.00
2024-01-26T08:44:02.209Z,746.00
2024-01-26T08:45:02.381Z,746.00
2024-01-26T08:46:02.274Z,743.00
2024-01-26T08:47:02.367Z,746.00
2024-01-26T08:48:02.535Z,752.00
2024-01-26T08:49:02.821Z,762.00
2024-01-26T08:50:02.559Z,777.00
2024-01-26T08:51:02.672Z,802.00
2024-01-26T08:52:02.653Z,800.00
2024-01-26T08:53:02.679Z,812.00
2024-01-26T08:54:02.820Z,824.00
2024-01-26T08:55:02.739Z,833.00
2024-01-26T08:56:02.814Z,831.00
2024-01-26T08:57:02.825Z,834.00
2024-01-26T08:58:02.851Z,838.00
2024-01-26T08:59:03.173Z,838.00
2024-01-26T09:00:02.930Z,838.00
2024-01-26T09:01:02.959Z,837.00
2024-01-26T09:02:02.884Z,844.00
2024-01-26T09:03:02.957Z,849.00
2024-01-26T09:04:02.960Z,857.00
2024-01-26T09:05:03.465Z,894.00
2024-01-26T09:06:02.999Z,898.00
2024-01-26T09:07:10.067Z,943.00
2024-01-26T09:08:03.983Z,947.00
2024-01-26T09:09:02.996Z,952.00
2024-01-26T09:10:03.011Z,960.00
2024-01-26T09:11:02.962Z,966.00
2024-01-26T09:12:03.016Z,976.00
2024-01-26T09:13:02.980Z,987.00
2024-01-26T09:14:03.022Z,997.00
2024-01-26T09:15:03.018Z,1000.00
2024-01-26T09:16:03.784Z,1006.00
2024-01-26T09:17:03.000Z,999.00
2024-01-26T09:18:03.162Z,999.00
2024-01-26T09:19:04.331Z,999.00
2024-01-26T09:20:03.338Z,996.00
2024-01-26T09:21:02.973Z,996.00
2024-01-26T09:22:02.952Z,995.00
2024-01-26T09:23:02.975Z,994.00
2024-01-26T09:24:05.703Z,997.00
2024-01-26T09:25:02.972Z,996.00
2024-01-26T09:26:03.069Z,998.00
2024-01-26T09:27:03.024Z,1002.00
2024-01-26T09:28:02.971Z,1001.00
2024-01-26T09:29:10.291Z,993.00
2024-01-26T09:30:10.548Z,1001.00
2024-01-26T09:31:10.307Z,999.00
2024-01-26T09:32:10.274Z,996.00
2024-01-26T09:33:10.323Z,993.00
2024-01-26T09:34:10.396Z,992.00
2024-01-26T09:35:10.332Z,1011.00
2024-01-26T09:36:10.353Z,1025.00
2024-01-26T09:37:10.320Z,1031.00
2024-01-26T09:38:10.329Z,1032.00
2024-01-26T09:39:10.309Z,1030.00
2024-01-26T09:40:10.311Z,1030.00
2024-01-26T09:41:10.287Z,1032.00
2024-01-26T09:42:10.336Z,1035.00
2024-01-26T09:43:10.301Z,1032.00
2024-01-26T09:44:10.287Z,1033.00
2024-01-26T09:45:10.316Z,1032.00
2024-01-26T09:46:10.291Z,1029.00
2024-01-26T09:47:10.337Z,1027.00
2024-01-26T09:48:10.385Z,1028.00
2024-01-26T09:49:10.356Z,1032.00
2024-01-26T09:50:10.343Z,1031.00
2024-01-26T09:51:10.499Z,1032.00
2024-01-26T09:52:10.485Z,1036.00
2024-01-26T09:53:10.520Z,1039.00
2024-01-26T09:54:10.574Z,1040.00
2024-01-26T09:55:10.603Z,1039.00
2024-01-26T09:56:10.675Z,1044.00
2024-01-26T09:57:10.790Z,1050.00
2024-01-26T09:58:10.800Z,1048.00
2024-01-26T09:59:10.860Z,1070.00
2024-01-26T10:00:10.944Z,1095.00
2024-01-26T10:01:11.059Z,1095.00
2024-01-26T10:02:11.046Z,1100.00
2024-01-26T10:03:11.160Z,1125.00
2024-01-26T10:04:11.287Z,1140.00
2024-01-26T10:05:11.241Z,1155.00
2024-01-26T10:06:11.378Z,1169.00
2024-01-26T10:07:11.463Z,1178.00
2024-01-26T10:08:11.446Z,1181.00
2024-01-26T10:09:11.516Z,1185.00
2024-01-26T10:10:11.498Z,1194.00
2024-01-26T10:11:11.540Z,1189.00
2024-01-26T10:12:11.756Z,1188.00
2024-01-26T10:13:11.621Z,1196.00
2024-01-26T10:14:11.691Z,1215.00
2024-01-26T10:15:11.905Z,1259.00
2024-01-26T10:16:11.824Z,1268.00
2024-01-26T10:17:11.778Z,1230.00
2024-01-26T10:18:11.962Z,1231.00
2024-01-26T10:19:12.064Z,1233.00
2024-01-26T10:20:11.994Z,1231.00
2024-01-26T10:21:12.113Z,1260.00
2024-01-26T10:22:11.984Z,1290.00
2024-01-26T10:23:12.005Z,1304.00
2024-01-26T10:24:12.113Z,1337.00
2024-01-26T10:25:12.092Z,1364.00
2024-01-26T10:26:12.148Z,1365.00
2024-01-26T10:27:12.236Z,1374.00
2024-01-26T10:28:12.197Z,1382.00
2024-01-26T10:29:12.217Z,1374.00
2024-01-26T10:30:12.311Z,1339.00
2024-01-26T10:31:12.274Z,1297.00
2024-01-26T10:32:12.306Z,1282.00
2024-01-26T10:33:12.490Z,1297.00
2024-01-26T10:34:12.444Z,1287.00
2024-01-26T10:35:12.543Z,1346.00
2024-01-26T10:36:12.548Z,1394.00
2024-01-26T10:37:12.504Z,1390.00
2024-01-26T10:38:12.491Z,1392.00
2024-01-26T10:39:12.539Z,1402.00
2024-01-26T10:40:12.560Z,1410.00
2024-01-26T10:41:12.578Z,1421.00
2024-01-26T10:42:12.600Z,1445.00
2024-01-26T10:43:12.584Z,1504.00
2024-01-26T10:44:12.583Z,1524.00
2024-01-26T10:45:12.917Z,1534.00
2024-01-26T10:46:12.608Z,1536.00
2024-01-26T10:47:12.632Z,1553.00
2024-01-26T10:48:12.713Z,1608.00
2024-01-26T10:49:12.798Z,1622.00
2024-01-26T10:50:12.909Z,1627.00
2024-01-26T10:51:13.219Z,1639.00
2024-01-26T10:52:12.836Z,1647.00
2024-01-26T10:53:12.698Z,1650.00
2024-01-26T10:54:12.905Z,1658.00
2024-01-26T10:55:12.828Z,1669.00
2024-01-26T10:56:12.843Z,1681.00
2024-01-26T10:57:13.034Z,1693.00
2024-01-26T10:58:12.941Z,1717.00
2024-01-26T10:59:13.005Z,1738.00
2024-01-26T11:00:13.147Z,1733.00
2024-01-26T11:01:16.297Z,1750.00
2024-01-26T11:02:21.171Z,1764.00
2024-01-26T11:03:14.293Z,1770.00
2024-01-26T11:04:13.191Z,1787.00
2024-01-26T11:05:18.988Z,1814.00
2024-01-26T11:06:13.290Z,1824.00
2024-01-26T11:08:17.048Z,1851.00
2024-01-26T11:09:13.323Z,1859.00
2024-01-26T11:10:13.186Z,1870.00
2024-01-26T11:11:13.160Z,1879.00
2024-01-26T11:12:13.303Z,1900.00
2024-01-26T11:13:13.202Z,1943.00
2024-01-26T11:14:13.241Z,1957.00
2024-01-26T11:15:13.226Z,1966.00
2024-01-26T11:16:13.174Z,1973.00
2024-01-26T11:17:13.160Z,1983.00
2024-01-26T11:18:13.314Z,1989.00
2024-01-26T11:19:13.277Z,1989.00
2024-01-26T11:20:13.201Z,2000.00
2024-01-26T11:21:13.229Z,2023.00
2024-01-26T11:22:13.184Z,2045.00
2024-01-26T11:23:13.228Z,2061.00
2024-01-26T11:24:13.251Z,2074.00
2024-01-26T11:25:13.205Z,2090.00
2024-01-26T11:26:13.192Z,2104.00
2024-01-26T11:27:13.252Z,2114.00
2024-01-26T11:28:13.220Z,2124.00
2024-01-26T11:29:13.215Z,2138.00
2024-01-26T11:30:13.293Z,2146.00
2024-01-26T11:31:13.205Z,2156.00
2024-01-26T11:32:13.201Z,2165.00
2024-01-26T11:33:13.294Z,2175.00
2024-01-26T11:34:13.265Z,2185.00
2024-01-26T11:35:13.224Z,2195.00
2024-01-26T11:36:13.761Z,2210.00
2024-01-26T11:37:13.212Z,2218.00
2024-01-26T11:38:13.214Z,2233.00
2024-01-26T11:39:13.219Z,2245.00
2024-01-26T11:40:13.208Z,2256.00
2024-01-26T11:41:13.218Z,2288.00
2024-01-26T11:42:13.372Z,2297.00
2024-01-26T11:43:13.225Z,2300.00
2024-01-26T11:44:13.191Z,2309.00
2024-01-26T11:45:13.336Z,2317.00
2024-01-26T11:46:13.232Z,2323.00
2024-01-26T11:47:13.244Z,2326.00
2024-01-26T11:48:13.266Z,2332.00
2024-01-26T11:49:13.354Z,2339.00
2024-01-26T11:50:13.213Z,2341.00
2024-01-26T11:51:13.283Z,2346.00
2024-01-26T11:52:13.227Z,2356.00
2024-01-26T11:53:13.201Z,2366.00
2024-01-26T11:54:13.304Z,2372.00
2024-01-26T11:55:13.233Z,2381.00
2024-01-26T11:56:13.269Z,2401.00
2024-01-26T11:57:13.346Z,2423.00
2024-01-26T11:58:13.238Z,2485.00
2024-01-26T11:59:13.260Z,2509.00
2024-01-26T12:00:13.362Z,2528.00
2024-01-26T12:01:13.456Z,2531.00
2024-01-26T12:02:13.551Z,2547.00
2024-01-26T12:03:13.573Z,2560.00
2024-01-26T12:04:13.685Z,2574.00
2024-01-26T12:05:13.772Z,2587.00
2024-01-26T12:06:13.817Z,2593.00
2024-01-26T12:07:13.823Z,2591.00
2024-01-26T12:08:13.850Z,2596.00
2024-01-26T12:09:14.026Z,2597.00
2024-01-26T12:10:13.998Z,2592.00
2024-01-26T12:11:14.034Z,2456.00
2024-01-26T12:12:14.136Z,2455.00
2024-01-26T12:13:14.299Z,2452.00
2024-01-26T12:14:14.177Z,2227.00
2024-01-26T12:15:14.320Z,2156.00
2024-01-26T12:16:14.189Z,2123.00
2024-01-26T12:17:14.211Z,1678.00
2024-01-26T12:18:14.402Z,1223.00
2024-01-26T12:19:14.369Z,996.00
2024-01-26T12:20:14.369Z,942.00
2024-01-26T12:21:14.376Z,829.00
2024-01-26T12:22:14.385Z,758.00
2024-01-26T12:23:14.411Z,750.00
2024-01-26T12:24:15.798Z,722.00
2024-01-26T12:25:14.550Z,642.00
2024-01-26T12:26:14.612Z,594.00
2024-01-26T12:27:14.752Z,576.00
2024-01-26T12:28:14.647Z,572.00
2024-01-26T12:29:14.696Z,564.00
2024-01-26T12:30:14.841Z,553.00
2024-01-26T12:31:14.765Z,543.00
2024-01-26T12:32:14.891Z,535.00
2024-01-26T12:33:15.054Z,529.00
2024-01-26T12:34:14.974Z,523.00
2024-01-26T12:35:14.843Z,522.00
2024-01-26T12:36:14.933Z,534.00
2024-01-26T12:37:14.891Z,641.00
2024-01-26T12:38:14.956Z,775.00
2024-01-26T12:39:15.065Z,793.00
2024-01-26T12:40:15.045Z,809.00
2024-01-26T12:41:15.046Z,825.00
2024-01-26T12:42:15.177Z,875.00
2024-01-26T12:43:15.072Z,889.00
2024-01-26T12:44:15.100Z,909.00
2024-01-26T12:45:15.328Z,956.00
2024-01-26T12:46:15.206Z,969.00
2024-01-26T12:47:15.322Z,810.00
2024-01-26T12:48:15.466Z,832.00
2024-01-26T12:49:15.523Z,830.00
2024-01-26T12:50:15.500Z,833.00
2024-01-26T12:51:15.588Z,840.00
2024-01-26T12:52:39.487Z,842.00
2024-01-26T12:53:15.564Z,843.00
2024-01-26T12:54:39.040Z,850.00
2024-01-26T12:55:38.150Z,852.00
2024-01-26T12:56:38.248Z,845.00
2024-01-26T12:57:15.798Z,848.00
2024-01-26T12:58:38.171Z,849.00
2024-01-26T12:59:15.652Z,851.00
2024-01-26T13:00:15.696Z,854.00
2024-01-26T13:01:15.706Z,855.00
2024-01-26T13:02:15.680Z,857.00
2024-01-26T13:03:15.699Z,857.00
2024-01-26T13:04:15.755Z,859.00
2024-01-26T13:05:15.737Z,862.00
2024-01-26T13:06:19.079Z,864.00
2024-01-26T13:07:15.728Z,869.00
2024-01-26T13:08:15.656Z,868.00
2024-01-26T13:09:15.834Z,872.00
2024-01-26T13:10:15.738Z,871.00
2024-01-26T13:11:15.685Z,859.00
2024-01-26T13:12:15.715Z,853.00
2024-01-26T13:13:15.716Z,847.00
2024-01-26T13:14:15.695Z,834.00
2024-01-26T13:15:15.913Z,807.00
2024-01-26T13:16:15.684Z,796.00
2024-01-26T13:17:15.682Z,788.00
2024-01-26T13:19:15.806Z,771.00
2024-01-26T13:20:19.723Z,764.00
2024-01-26T13:21:16.876Z,759.00
2024-01-26T13:22:15.732Z,754.00
2024-01-26T13:23:15.698Z,749.00
2024-01-26T13:24:15.941Z,747.00
2024-01-26T13:25:15.714Z,744.00
2024-01-26T13:26:15.722Z,737.00
2024-01-26T13:27:17.617Z,733.00
2024-01-26T13:28:16.717Z,728.00
2024-01-26T13:29:15.722Z,723.00
2024-01-26T13:30:16.332Z,716.00
2024-01-26T13:31:16.264Z,711.00
2024-01-26T13:32:15.726Z,707.00
2024-01-26T13:33:15.950Z,699.00
2024-01-26T13:34:15.921Z,693.00
2024-01-26T13:35:15.776Z,690.00
2024-01-26T13:36:15.767Z,685.00
2024-01-26T13:37:15.710Z,681.00
2024-01-26T13:38:15.730Z,672.00
2024-01-26T13:39:15.781Z,666.00
2024-01-26T13:40:15.740Z,663.00
2024-01-26T13:41:15.800Z,659.00
2024-01-26T13:42:15.935Z,656.00
2024-01-26T13:43:15.894Z,652.00
2024-01-26T13:44:15.960Z,649.00
2024-01-26T13:45:16.128Z,646.00
2024-01-26T13:46:16.048Z,644.00
2024-01-26T13:47:16.106Z,642.00
2024-01-26T13:48:16.261Z,636.00
2024-01-26T13:49:16.404Z,631.00
2024-01-26T13:50:16.358Z,630.00
2024-01-26T13:51:16.396Z,628.00
2024-01-26T13:52:16.414Z,630.00
2024-01-26T13:53:16.488Z,628.00
2024-01-26T13:54:16.563Z,625.00
2024-01-26T13:55:18.759Z,623.00
2024-01-26T13:56:16.591Z,623.00
2024-01-26T13:57:16.652Z,625.00
2024-01-26T13:58:16.564Z,626.00
2024-01-26T13:59:16.554Z,624.00
2024-01-26T14:00:21.395Z,627.00
2024-01-26T14:01:19.091Z,634.00
2024-01-26T14:02:16.596Z,630.00
2024-01-26T14:03:16.627Z,615.00
2024-01-26T14:04:16.632Z,602.00
2024-01-26T14:05:16.747Z,596.00
2024-01-26T14:06:16.752Z,590.00
2024-01-26T14:07:16.554Z,584.00
2024-01-26T14:08:16.609Z,583.00
2024-01-26T14:09:16.712Z,582.00
2024-01-26T14:10:16.593Z,579.00
2024-01-26T14:11:16.568Z,573.00
2024-01-26T14:12:16.651Z,568.00
2024-01-26T14:13:16.566Z,566.00
2024-01-26T14:14:16.629Z,563.00
2024-01-26T14:15:17.021Z,561.00
2024-01-26T14:16:16.585Z,557.00
2024-01-26T14:17:16.569Z,554.00
2024-01-26T14:18:16.772Z,549.00
2024-01-26T14:19:16.827Z,549.00
2024-01-26T14:20:16.617Z,545.00
2024-01-26T14:21:16.715Z,543.00
2024-01-26T14:22:16.598Z,542.00
2024-01-26T14:23:16.590Z,539.00
2024-01-26T14:24:16.674Z,537.00
2024-01-26T14:25:16.604Z,536.00
2024-01-26T14:26:16.605Z,535.00
2024-01-26T14:27:16.691Z,532.00
2024-01-26T14:28:16.614Z,531.00
2024-01-26T14:29:16.633Z,531.00
2024-01-26T14:30:16.662Z,529.00
2024-01-26T14:31:16.604Z,529.00
2024-01-26T14:32:16.633Z,530.00
2024-01-26T14:33:16.722Z,529.00
2024-01-26T14:34:16.727Z,528.00
2024-01-26T14:35:43.335Z,516.00
2024-01-26T14:36:43.172Z,516.00
2024-01-26T14:37:43.205Z,520.00
2024-01-26T14:38:43.251Z,520.00
2024-01-26T14:39:43.187Z,520.00
2024-01-26T14:40:43.243Z,520.00
2024-01-26T14:41:43.337Z,520.00
2024-01-26T14:42:43.362Z,519.00
2024-01-26T14:43:43.432Z,520.00
2024-01-26T14:44:43.544Z,517.00
2024-01-26T14:45:43.612Z,518.00
2024-01-26T14:46:43.612Z,515.00
2024-01-26T14:47:43.795Z,515.00
2024-01-26T14:48:43.856Z,513.00
2024-01-26T14:49:43.806Z,514.00
2024-01-26T14:51:06.340Z,515.00
2024-01-26T14:51:43.836Z,517.00
2024-01-26T14:52:43.809Z,516.00
2024-01-26T14:53:43.910Z,516.00
2024-01-26T14:54:43.835Z,515.00
2024-01-26T14:55:43.865Z,516.00
2024-01-26T14:56:43.878Z,516.00
2024-01-26T14:57:43.849Z,515.00
2024-01-26T14:58:43.837Z,516.00
2024-01-26T14:59:43.858Z,515.00
2024-01-26T15:00:43.895Z,512.00
2024-01-26T15:01:43.831Z,512.00
2024-01-26T15:02:43.852Z,510.00
2024-01-26T15:03:43.912Z,509.00
2024-01-26T15:04:43.918Z,508.00
2024-01-26T15:05:43.992Z,508.00
2024-01-26T15:06:43.870Z,507.00
2024-01-26T15:07:47.922Z,506.00
2024-01-26T15:08:45.047Z,506.00
2024-01-26T15:09:43.901Z,505.00
2024-01-26T15:10:43.850Z,503.00
2024-01-26T15:11:43.931Z,503.00
2024-01-26T15:12:43.853Z,501.00
2024-01-26T15:13:43.867Z,500.00
2024-01-26T15:14:43.878Z,499.00
2024-01-26T15:15:43.843Z,497.00
2024-01-26T15:16:43.863Z,499.00
2024-01-26T15:17:43.926Z,499.00
2024-01-26T15:18:44.083Z,499.00
2024-01-26T15:19:44.105Z,502.00
2024-01-26T15:20:44.175Z,504.00
2024-01-26T15:21:44.184Z,503.00
2024-01-26T15:22:44.139Z,503.00
2024-01-26T15:23:44.249Z,503.00
2024-01-26T15:24:44.237Z,501.00
2024-01-26T15:25:44.291Z,501.00
2024-01-26T15:26:44.458Z,501.00
2024-01-26T15:27:44.398Z,498.00
2024-01-26T15:28:44.449Z,498.00
2024-01-26T15:29:44.527Z,498.00
2024-01-26T15:30:44.590Z,496.00
2024-01-26T15:31:44.634Z,498.00
2024-01-26T15:32:44.801Z,498.00
2024-01-26T15:33:44.819Z,499.00
2024-01-26T15:34:44.819Z,499.00
2024-01-26T15:35:44.883Z,502.00
2024-01-26T15:36:44.868Z,508.00
2024-01-26T15:37:44.928Z,513.00
2024-01-26T15:38:45.053Z,514.00
2024-01-26T15:39:45.022Z,516.00
2024-01-26T15:40:45.117Z,521.00
2024-01-26T15:41:45.957Z,528.00
2024-01-26T15:42:45.276Z,541.00
2024-01-26T15:43:45.307Z,552.00
2024-01-26T15:44:45.217Z,560.00
2024-01-26T15:45:45.390Z,562.00
2024-01-26T15:46:45.286Z,564.00
2024-01-26T15:47:45.757Z,564.00
2024-01-26T15:48:45.564Z,564.00
2024-01-26T15:49:45.514Z,564.00
2024-01-26T15:50:45.485Z,561.00
2024-01-26T15:51:45.541Z,560.00
2024-01-26T15:52:47.082Z,562.00
2024-01-26T15:53:46.512Z,564.00
2024-01-26T15:54:45.528Z,565.00
2024-01-26T15:55:45.525Z,565.00
2024-01-26T15:56:45.663Z,566.00
2024-01-26T15:57:45.630Z,566.00
2024-01-26T15:58:45.684Z,565.00
2024-01-26T15:59:47.294Z,565.00
2024-01-26T16:00:45.819Z,565.00
2024-01-26T16:01:45.676Z,566.00
2024-01-26T16:02:45.723Z,567.00
2024-01-26T16:03:45.813Z,567.00
2024-01-26T16:04:46.056Z,567.00
2024-01-26T16:05:45.959Z,565.00
2024-01-26T16:06:50.069Z,568.00
2024-01-26T16:07:45.782Z,567.00
2024-01-26T16:08:45.821Z,568.00
2024-01-26T16:09:45.791Z,568.00
2024-01-26T16:10:45.797Z,568.00
2024-01-26T16:11:45.843Z,569.00
2024-01-26T16:12:45.819Z,571.00
2024-01-26T16:13:45.802Z,571.00
2024-01-26T16:14:45.847Z,571.00
2024-01-26T16:15:45.805Z,570.00
2024-01-26T16:16:45.804Z,569.00
2024-01-26T16:17:45.916Z,570.00
2024-01-26T16:18:46.244Z,568.00
2024-01-26T16:19:45.846Z,568.00
2024-01-26T16:20:45.916Z,571.00
2024-01-26T16:21:45.811Z,571.00
2024-01-26T16:22:45.798Z,572.00
2024-01-26T16:23:45.825Z,572.00
2024-01-26T16:24:45.857Z,573.00
2024-01-26T16:25:45.848Z,574.00
2024-01-26T16:26:45.893Z,573.00
2024-01-26T16:27:45.955Z,571.00
2024-01-26T16:28:45.838Z,570.00
2024-01-26T16:29:45.829Z,571.00
2024-01-26T16:30:45.835Z,573.00
2024-01-26T16:31:45.932Z,573.00
2024-01-26T16:32:45.972Z,573.00
2024-01-26T16:33:46.063Z,572.00
2024-01-26T16:34:45.909Z,572.00
2024-01-26T16:35:45.885Z,570.00
2024-01-26T16:36:45.947Z,570.00
2024-01-26T16:37:45.859Z,570.00
2024-01-26T16:38:54.329Z,570.00
2024-01-26T16:39:46.909Z,570.00
2024-01-26T16:40:46.086Z,571.00
2024-01-26T16:41:45.903Z,571.00
2024-01-26T16:43:09.367Z,570.00
2024-01-26T16:44:08.489Z,570.00
2024-01-26T16:45:08.532Z,572.00
2024-01-26T16:45:46.066Z,573.00
2024-01-26T16:46:45.989Z,572.00
2024-01-26T16:47:46.135Z,571.00
2024-01-26T16:48:46.134Z,568.00
2024-01-26T16:49:46.102Z,568.00
2024-01-26T16:50:46.057Z,568.00
2024-01-26T16:51:46.021Z,569.00
2024-01-26T16:52:46.024Z,569.00
2024-01-26T16:53:46.083Z,568.00
2024-01-26T16:54:46.100Z,565.00
2024-01-26T16:55:46.113Z,565.00
2024-01-26T16:56:46.103Z,565.00
2024-01-26T16:57:46.096Z,568.00
2024-01-26T16:58:46.056Z,569.00
2024-01-26T16:59:46.033Z,567.00
2024-01-26T17:00:46.227Z,567.00
2024-01-26T17:01:46.113Z,568.00
2024-01-26T17:02:46.200Z,568.00
2024-01-26T17:03:46.225Z,568.00
2024-01-26T17:04:46.076Z,568.00
2024-01-26T17:05:46.233Z,567.00
2024-01-26T17:06:46.143Z,568.00
2024-01-26T17:07:46.060Z,570.00
2024-01-26T17:08:46.163Z,570.00
2024-01-26T17:09:46.034Z,569.00
2024-01-26T17:10:46.044Z,569.00
2024-01-26T17:11:46.059Z,571.00
2024-01-26T17:12:46.049Z,572.00
2024-01-26T17:13:46.050Z,572.00
2024-01-26T17:14:46.110Z,572.00
2024-01-26T17:15:46.064Z,572.00
2024-01-26T17:16:46.043Z,571.00
2024-01-26T17:17:46.115Z,573.00
2024-01-26T17:18:46.306Z,574.00
2024-01-26T17:19:46.083Z,576.00
2024-01-26T17:20:46.113Z,574.00
2024-01-26T17:21:46.324Z,574.00
2024-01-26T17:22:46.055Z,575.00
2024-01-26T17:23:46.066Z,576.00
2024-01-26T17:24:46.017Z,575.00
2024-01-26T17:25:46.085Z,576.00
2024-01-26T17:26:46.076Z,575.00
2024-01-26T17:27:46.036Z,575.00
2024-01-26T17:28:46.047Z,574.00
2024-01-26T17:29:46.112Z,573.00
2024-01-26T17:30:46.110Z,574.00
2024-01-26T17:31:46.079Z,575.00
2024-01-26T17:32:46.254Z,577.00
2024-01-26T17:33:46.243Z,575.00
2024-01-26T17:34:46.148Z,576.00
2024-01-26T17:35:46.248Z,573.00
2024-01-26T17:36:46.237Z,574.00
2024-01-26T17:37:46.148Z,573.00
2024-01-26T17:38:46.189Z,575.00
2024-01-26T17:39:56.291Z,576.00
2024-01-26T17:40:47.206Z,573.00
2024-01-26T17:41:46.239Z,572.00
2024-01-26T17:42:46.186Z,571.00
2024-01-26T17:43:46.194Z,571.00
2024-01-26T17:44:46.201Z,569.00
2024-01-26T17:45:46.191Z,568.00
2024-01-26T17:46:49.147Z,569.00
2024-01-26T17:47:46.293Z,568.00
2024-01-26T17:48:46.290Z,570.00
2024-01-26T17:49:46.259Z,572.00
2024-01-26T17:50:46.209Z,572.00
2024-01-26T17:51:46.222Z,574.00
2024-01-26T17:52:46.243Z,575.00
2024-01-26T17:53:46.231Z,573.00
2024-01-26T17:54:46.213Z,575.00
2024-01-26T17:55:46.221Z,574.00
2024-01-26T17:56:46.242Z,577.00
2024-01-26T17:57:46.211Z,577.00
2024-01-26T17:58:46.252Z,579.00
2024-01-26T17:59:46.276Z,579.00
2024-01-26T18:00:46.295Z,579.00
